Time;durP1;ratioP1;P1;durP2;ratioP2;P2;SDS_P1;SDS_P2;PMS_P1;PMS_P2;Temp;Humidity;BMP_temperature;BMP_pressure;BME280_temperature;BME280_humidity;BME280_pressure;Samples;Min_cycle;Max_cycle;Signal;HPM_P1;HPM_P2
2022/10/10 00:02:07;;;;;;;8.02;4.50;;;;;;;8.86;73.48;101404.84;5065206;28;20036;-78
2022/10/10 00:04:33;;;;;;;10.02;5.05;;;;;;;8.81;74.02;101406.91;5064347;28;20039;-78
2022/10/10 00:06:58;;;;;;;8.32;5.72;;;;;;;8.75;73.69;101396.97;5066463;28;20028;-78
2022/10/10 00:09:23;;;;;;;10.15;6.25;;;;;;;8.72;74.07;101399.75;5068553;28;20364;-79
2022/10/10 00:11:49;;;;;;;8.85;5.82;;;;;;;8.78;73.54;101407.13;5069098;28;20038;-78
2022/10/10 00:14:14;;;;;;;10.90;5.95;;;;;;;8.68;74.25;101390.53;5068770;28;20021;-78
2022/10/10 00:16:40;;;;;;;9.70;5.80;;;;;;;8.69;74.14;101392.19;5040224;28;20637;-79
2022/10/10 00:19:05;;;;;;;8.32;5.32;;;;;;;8.72;74.48;101408.34;5068530;28;20035;-78
2022/10/10 00:21:30;;;;;;;8.25;4.95;;;;;;;8.57;74.60;101388.63;5051266;28;20047;-78
2022/10/10 00:23:56;;;;;;;8.98;6.57;;;;;;;8.64;74.41;101409.75;5068913;28;20187;-78
2022/10/10 00:26:21;;;;;;;9.48;6.05;;;;;;;8.65;74.85;101408.81;5066609;28;20032;-78
2022/10/10 00:28:47;;;;;;;8.80;6.07;;;;;;;8.52;74.78;101386.34;5067886;28;20032;-78
2022/10/10 00:31:13;;;;;;;8.23;5.00;;;;;;;8.68;74.77;101393.13;5050223;28;20379;-78
2022/10/10 00:33:38;;;;;;;8.20;5.78;;;;;;;8.57;75.29;101398.16;5039706;28;20050;-78
2022/10/10 00:36:05;;;;;;;8.82;5.72;;;;;;;8.51;75.28;101394.19;5065704;28;20031;-81
2022/10/10 00:38:31;;;;;;;8.45;5.68;;;;;;;8.50;75.53;101398.53;5064245;28;20045;-78
2022/10/10 00:40:57;;;;;;;10.45;5.50;;;;;;;8.46;75.85;101397.06;5056517;28;20420;-78
2022/10/10 00:43:24;;;;;;;6.97;4.57;;;;;;;8.59;75.48;101401.47;5046052;28;20137;-79
2022/10/10 00:45:50;;;;;;;8.57;5.63;;;;;;;8.48;75.76;101399.56;5064834;28;20442;-79
2022/10/10 00:48:34;;;;;;;7.65;5.07;;;;;;;8.48;76.02;101394.38;5037299;28;20032;-79
2022/10/10 00:51:08;;;;;;;7.55;5.18;;;;;;;8.39;76.00;101390.63;5067688;28;20401;-78
2022/10/10 00:53:41;;;;;;;11.75;5.35;;;;;;;8.37;76.45;101392.50;5050851;28;20420;-79
2022/10/10 00:56:09;;;;;;;9.77;5.13;;;;;;;8.32;76.15;101383.34;5036036;28;20071;-78
2022/10/10 00:58:38;;;;;;;9.13;5.80;;;;;;;8.31;76.01;101379.91;5049081;28;20031;-78
2022/10/10 01:01:03;;;;;;;9.27;5.63;;;;;;;8.33;75.90;101375.50;5049798;28;20048;-78
2022/10/10 01:03:29;;;;;;;9.65;4.80;;;;;;;8.28;76.29;101367.19;5049438;28;20107;-80
2022/10/10 01:05:54;;;;;;;6.15;4.53;;;;;;;8.32;75.77;101363.50;5061612;28;20052;-79
2022/10/10 01:08:20;;;;;;;9.20;5.60;;;;;;;8.37;76.03;101374.41;5066738;28;20472;-78
2022/10/10 01:11:14;;;;;;;8.93;5.25;;;;;;;8.36;75.85;101374.47;5041898;28;20078;-80
2022/10/10 01:13:45;;;;;;;8.68;5.85;;;;;;;8.30;75.81;101357.59;5038470;28;20536;-78
2022/10/10 01:16:28;;;;;;;8.80;5.70;;;;;;;8.28;76.16;101356.84;5040955;28;20032;-78
2022/10/10 01:19:14;;;;;;;10.00;5.88;;;;;;;8.31;76.12;101363.56;5066346;28;20154;-78
2022/10/10 01:22:02;;;;;;;10.70;5.28;;;;;;;8.29;76.48;101363.69;5057788;28;20555;-78
2022/10/10 01:25:06;;;;;;;8.25;4.13;;;;;;;8.32;75.52;101368.66;5066866;28;20052;-80
2022/10/10 01:27:46;;;;;;;9.02;4.97;;;;;;;8.22;76.83;101352.91;4978169;28;20056;-78
2022/10/10 01:30:18;;;;;;;10.30;5.55;;;;;;;8.24;76.41;101370.91;4968053;28;20131;-79
2022/10/10 01:33:02;;;;;;;7.45;5.70;;;;;;;8.14;76.86;101360.31;4981903;28;20030;-78
2022/10/10 01:35:45;;;;;;;9.40;5.13;;;;;;;8.20;76.82;101366.84;4986066;28;20112;-78
2022/10/10 01:38:10;;;;;;;9.20;5.45;;;;;;;8.15;76.63;101366.31;4985319;28;20490;-78
2022/10/10 01:40:48;;;;;;;8.77;5.43;;;;;;;8.13;77.43;101363.81;4985760;28;20038;-78
2022/10/10 01:43:13;;;;;;;9.15;5.05;;;;;;;8.04;77.03;101358.41;4985812;28;20049;-78
2022/10/10 01:45:50;;;;;;;7.25;5.35;;;;;;;7.95;77.13;101347.72;4980975;28;20038;-79
2022/10/10 01:48:28;;;;;;;9.95;5.32;;;;;;;7.92;77.50;101340.16;4965986;28;20134;-80
2022/10/10 01:51:15;;;;;;;8.48;4.97;;;;;;;7.98;78.13;101351.88;4958584;28;20038;-78
2022/10/10 01:53:59;;;;;;;8.32;5.20;;;;;;;7.96;77.45;101349.34;4971655;28;20105;-78
2022/10/10 01:56:45;;;;;;;12.65;5.93;;;;;;;7.94;77.80;101343.47;4982646;28;20038;-78
2022/10/10 01:59:35;;;;;;;7.80;4.95;;;;;;;7.94;77.87;101348.63;4982652;28;20062;-79
2022/10/10 02:02:29;;;;;;;9.30;4.97;;;;;;;7.95;77.82;101337.38;4989244;28;20038;-78
2022/10/10 02:05:06;;;;;;;8.15;5.03;;;;;;;7.88;78.16;101333.53;5046400;28;20078;-79
2022/10/10 02:07:42;;;;;;;9.98;5.22;;;;;;;7.85;78.52;101323.38;5061287;28;20023;-78
2022/10/10 02:10:10;;;;;;;7.53;5.18;;;;;;;7.87;78.88;101331.03;5053225;28;20025;-79
2022/10/10 02:12:38;;;;;;;8.38;5.03;;;;;;;7.80;78.90;101314.25;5064677;28;20139;-78
2022/10/10 02:15:10;;;;;;;9.05;5.50;;;;;;;7.74;78.98;101318.03;5048418;28;20028;-78
2022/10/10 02:17:38;;;;;;;8.35;5.03;;;;;;;7.69;79.37;101317.53;5064317;28;20115;-78
2022/10/10 02:20:06;;;;;;;8.25;5.00;;;;;;;7.60;79.24;101302.59;5066163;28;20370;-78
2022/10/10 02:22:33;;;;;;;8.20;5.28;;;;;;;7.67;79.16;101312.44;5066488;28;20028;-78
2022/10/10 02:24:59;;;;;;;8.95;5.40;;;;;;;7.72;79.35;101319.91;5061761;28;20093;-78
2022/10/10 02:27:48;;;;;;;10.35;5.45;;;;;;;7.68;79.66;101300.34;5055977;28;20109;-78
2022/10/10 02:30:14;;;;;;;9.32;5.57;;;;;;;7.66;79.50;101307.38;5036433;28;20032;-78
2022/10/10 02:32:46;;;;;;;8.85;5.28;;;;;;;7.55;79.79;101294.28;5065743;28;20070;-82
2022/10/10 02:35:18;;;;;;;9.25;6.13;;;;;;;7.66;79.82;101305.63;5043784;28;20052;-78
2022/10/10 02:37:46;;;;;;;10.43;5.13;;;;;;;7.67;79.21;101312.44;5062588;28;20024;-80
2022/10/10 02:40:17;;;;;;;8.02;5.05;;;;;;;7.52;79.13;101285.00;5065619;28;20589;-79
2022/10/10 02:42:45;;;;;;;9.48;4.93;;;;;;;7.65;79.24;101300.56;5065952;28;20040;-78
2022/10/10 02:45:11;;;;;;;7.80;5.30;;;;;;;7.56;79.39;101293.38;5065609;28;20078;-78
2022/10/10 02:47:36;;;;;;;7.60;4.95;;;;;;;7.56;79.66;101286.44;5065091;28;20033;-78
2022/10/10 02:50:02;;;;;;;8.55;5.57;;;;;;;7.57;79.49;101284.69;5066364;28;20463;-79
2022/10/10 02:52:27;;;;;;;9.40;5.00;;;;;;;7.58;79.75;101294.13;5047186;28;20032;-78
2022/10/10 02:54:52;;;;;;;9.43;4.85;;;;;;;7.56;80.12;101290.78;5066557;28;20506;-78
2022/10/10 02:57:18;;;;;;;9.20;4.93;;;;;;;7.57;79.41;101292.44;5064199;28;20073;-79
2022/10/10 02:59:43;;;;;;;9.20;4.55;;;;;;;7.52;79.35;101279.00;5048031;28;20055;-78
2022/10/10 03:02:08;;;;;;;10.90;5.63;;;;;;;7.54;80.10;101287.47;5047585;28;20448;-78
2022/10/10 03:04:35;;;;;;;8.38;4.97;;;;;;;7.44;80.42;101262.22;5065986;28;20472;-79
2022/10/10 03:07:02;;;;;;;10.32;5.57;;;;;;;7.56;80.30;101283.03;5066269;28;20038;-79
2022/10/10 03:09:28;;;;;;;8.40;5.50;;;;;;;7.47;80.58;101268.13;5044799;28;20029;-78
2022/10/10 03:11:53;;;;;;;9.02;5.57;;;;;;;7.54;79.66;101272.00;5058934;28;20433;-79
2022/10/10 03:14:18;;;;;;;10.70;5.57;;;;;;;7.53;80.06;101265.19;5065438;28;20443;-78
2022/10/10 03:16:44;;;;;;;9.82;5.57;;;;;;;7.48;80.39;101257.72;5058667;28;20044;-80
2022/10/10 03:19:12;;;;;;;8.38;5.05;;;;;;;7.37;80.12;101240.31;5054448;28;20111;-78
2022/10/10 03:21:37;;;;;;;11.30;5.28;;;;;;;7.59;79.96;101275.13;5044392;28;20039;-78
2022/10/10 03:24:04;;;;;;;9.48;6.03;;;;;;;7.52;80.15;101263.53;5064954;28;20028;-78
2022/10/10 03:26:29;;;;;;;9.38;6.20;;;;;;;7.48;80.36;101256.88;5065573;28;20029;-80
2022/10/10 03:28:55;;;;;;;10.75;5.88;;;;;;;7.57;80.37;101277.81;5055401;28;20035;-78
2022/10/10 03:31:20;;;;;;;12.15;6.38;;;;;;;7.57;80.68;101266.63;5041277;28;20101;-78
2022/10/10 03:33:45;;;;;;;9.77;5.22;;;;;;;7.57;79.88;101274.38;5059775;28;20024;-78
2022/10/10 03:36:13;;;;;;;10.18;5.90;;;;;;;7.48;81.10;101251.72;5065383;28;20166;-78
2022/10/10 03:38:39;;;;;;;11.47;6.03;;;;;;;7.53;81.16;101276.31;5059075;28;20048;-79
2022/10/10 03:41:05;;;;;;;11.18;5.97;;;;;;;7.55;81.46;101273.63;5058440;28;20309;-78
2022/10/10 03:43:30;;;;;;;8.70;5.25;;;;;;;7.47;80.66;101257.81;5057865;28;20025;-79
2022/10/10 03:45:56;;;;;;;11.05;5.22;;;;;;;7.55;81.63;101268.47;5059114;28;20258;-78
2022/10/10 03:48:21;;;;;;;8.30;5.57;;;;;;;7.42;81.58;101252.94;5062477;28;20514;-79
2022/10/10 03:50:46;;;;;;;10.45;5.95;;;;;;;7.34;81.37;101240.50;5043554;28;20028;-79
2022/10/10 03:53:12;;;;;;;10.48;6.45;;;;;;;7.48;81.66;101268.03;5050260;28;20369;-80
2022/10/10 03:55:41;;;;;;;11.40;5.80;;;;;;;7.43;81.32;101260.56;5041932;28;20028;-78
2022/10/10 03:58:11;;;;;;;11.60;6.20;;;;;;;7.47;81.53;101260.41;5058050;28;20028;-78
2022/10/10 04:00:37;;;;;;;9.85;5.65;;;;;;;7.16;82.06;101215.81;5055213;28;20028;-78
2022/10/10 04:03:05;;;;;;;8.57;5.65;;;;;;;7.37;82.10;101244.63;5065476;28;20040;-79
2022/10/10 04:05:38;;;;;;;11.75;5.90;;;;;;;7.51;81.91;101262.66;5045962;28;20032;-78
2022/10/10 04:08:04;;;;;;;11.48;5.90;;;;;;;7.29;81.63;101221.06;5055103;28;20040;-76
2022/10/10 04:10:30;;;;;;;9.68;5.20;;;;;;;7.39;81.41;101233.28;5037040;28;20017;-78
2022/10/10 04:12:55;;;;;;;13.07;6.30;;;;;;;7.53;82.22;101255.69;5041178;28;20032;-78
2022/10/10 04:15:21;;;;;;;10.68;6.80;;;;;;;7.53;81.71;101260.00;5045811;28;20375;-77
2022/10/10 04:17:46;;;;;;;10.63;5.25;;;;;;;7.51;82.07;101254.09;5052502;28;20481;-77
2022/10/10 04:20:12;;;;;;;9.88;6.32;;;;;;;7.57;82.38;101256.28;5064842;28;20037;-78
2022/10/10 04:22:37;;;;;;;9.85;5.70;;;;;;;7.58;82.33;101257.97;5050700;28;20037;-78
2022/10/10 04:25:03;;;;;;;7.97;5.32;;;;;;;7.57;82.14;101248.56;5063967;28;20090;-78
2022/10/10 04:27:28;;;;;;;10.05;5.47;;;;;;;7.61;81.58;101253.44;5046082;28;20078;-79
2022/10/10 04:29:54;;;;;;;10.90;6.28;;;;;;;7.60;82.32;101256.94;5064854;28;20021;-78
2022/10/10 04:32:19;;;;;;;9.65;6.18;;;;;;;7.58;81.84;101256.22;5063506;28;20017;-78
2022/10/10 04:34:44;;;;;;;9.52;5.63;;;;;;;7.61;81.98;101253.44;5046030;28;20029;-79
2022/10/10 04:37:10;;;;;;;9.30;5.85;;;;;;;7.62;82.11;101259.44;5062445;28;20457;-78
2022/10/10 04:39:35;;;;;;;9.13;5.97;;;;;;;7.50;82.35;101234.38;5040445;28;20060;-79
2022/10/10 04:42:00;;;;;;;11.75;6.57;;;;;;;7.61;82.50;101263.75;5039910;28;20124;-77
2022/10/10 04:44:26;;;;;;;13.68;5.90;;;;;;;7.61;82.52;101257.78;5044452;28;20025;-78
2022/10/10 04:46:51;;;;;;;8.80;5.90;;;;;;;7.55;82.29;101250.41;5043955;28;20029;-78
2022/10/10 04:49:17;;;;;;;10.02;5.70;;;;;;;7.63;82.41;101266.28;5043451;28;20548;-80
2022/10/10 04:51:42;;;;;;;9.63;5.95;;;;;;;7.62;82.09;101264.59;5038860;28;20041;-78
2022/10/10 04:54:08;;;;;;;9.70;6.25;;;;;;;7.54;82.80;101256.50;5040655;28;20031;-78
2022/10/10 04:56:34;;;;;;;9.23;5.65;;;;;;;7.58;82.62;101252.81;5043082;28;20029;-77
2022/10/10 04:58:59;;;;;;;10.25;6.18;;;;;;;7.60;83.20;101266.44;5047377;28;20823;-77
2022/10/10 05:01:25;;;;;;;10.65;5.97;;;;;;;7.59;82.96;101257.06;5044821;28;20028;-78
2022/10/10 05:03:52;;;;;;;9.65;5.57;;;;;;;7.57;82.88;101257.16;5048043;28;20358;-78
2022/10/10 05:06:18;;;;;;;9.98;5.72;;;;;;;7.56;83.15;101264.97;5049409;28;20053;-77
2022/10/10 05:08:43;;;;;;;9.02;5.55;;;;;;;7.54;83.42;101257.31;5044639;28;20047;-77
2022/10/10 05:11:08;;;;;;;12.07;6.05;;;;;;;7.48;83.03;101241.41;5043251;28;20036;-78
2022/10/10 05:13:34;;;;;;;15.27;6.90;;;;;;;7.45;83.25;101232.06;5041541;28;20358;-78
2022/10/10 05:15:59;;;;;;;9.93;5.78;;;;;;;7.44;83.69;101239.00;5047304;28;20044;-77
2022/10/10 05:18:25;;;;;;;10.15;5.55;;;;;;;7.53;83.32;101247.09;5031125;28;20429;-78
2022/10/10 05:20:50;;;;;;;10.63;5.68;;;;;;;7.51;83.84;101242.03;5043522;28;20421;-78
2022/10/10 05:23:16;;;;;;;12.05;4.85;;;;;;;7.49;83.03;101232.72;5045053;28;20020;-77
2022/10/10 05:25:49;;;;;;;9.05;5.03;;;;;;;7.49;83.17;101243.06;5026518;23;20043;-81
2022/10/10 05:28:15;;;;;;;9.43;6.18;;;;;;;7.50;84.12;101244.69;4987600;28;20089;-80
2022/10/10 05:30:41;;;;;;;11.40;5.13;;;;;;;7.56;83.21;101254.66;4985844;28;20061;-79
2022/10/10 05:33:06;;;;;;;9.82;5.68;;;;;;;7.49;83.72;101243.06;4973057;28;20035;-80
2022/10/10 05:35:32;;;;;;;8.45;4.95;;;;;;;7.54;83.37;101251.34;4974992;28;20561;-80
2022/10/10 05:37:57;;;;;;;12.35;5.75;;;;;;;7.54;83.82;101251.34;4981938;28;20037;-80
2022/10/10 05:40:23;;;;;;;9.80;5.53;;;;;;;7.53;83.53;101247.09;4982982;28;20430;-80
2022/10/10 05:42:48;;;;;;;9.40;6.45;;;;;;;7.45;83.99;101245.84;4984155;28;20121;-80
2022/10/10 05:45:14;;;;;;;12.45;6.03;;;;;;;7.44;83.91;101241.56;4975384;28;20459;-80
2022/10/10 05:47:39;;;;;;;11.57;6.70;;;;;;;7.51;84.44;101256.69;4976346;28;20026;-80
2022/10/10 05:50:06;;;;;;;9.43;4.93;;;;;;;7.45;84.29;101244.97;4982979;28;20032;-80
2022/10/10 05:52:31;;;;;;;11.07;5.65;;;;;;;7.41;84.32;101236.63;4979157;28;20030;-80
2022/10/10 05:54:57;;;;;;;9.43;6.18;;;;;;;7.45;84.10;101251.00;4985699;28;20029;-80
2022/10/10 05:57:22;;;;;;;8.95;4.90;;;;;;;7.48;84.20;101246.56;4987422;28;20045;-80
2022/10/10 05:59:47;;;;;;;8.65;4.85;;;;;;;7.48;83.81;101251.72;4983525;28;20033;-80
2022/10/10 06:02:13;;;;;;;9.65;5.82;;;;;;;7.45;83.92;101248.41;4982756;28;20058;-80
2022/10/10 06:04:39;;;;;;;9.57;5.38;;;;;;;7.46;84.49;101249.25;4978202;28;20033;-81
2022/10/10 06:07:04;;;;;;;12.40;6.32;;;;;;;7.37;85.01;101240.31;4986060;28;20069;-80
2022/10/10 06:09:30;;;;;;;8.23;5.18;;;;;;;7.42;84.86;101248.59;4976599;28;20025;-81
2022/10/10 06:11:55;;;;;;;12.75;6.22;;;;;;;7.48;84.45;101259.47;4984265;28;20042;-80
2022/10/10 06:14:21;;;;;;;9.55;5.97;;;;;;;7.45;85.56;101247.56;4987012;28;20735;-80
2022/10/10 06:16:46;;;;;;;9.93;5.18;;;;;;;7.44;85.40;101256.22;4976808;28;20037;-80
2022/10/10 06:19:11;;;;;;;9.95;5.38;;;;;;;7.47;86.01;101256.06;4971696;28;20115;-81
2022/10/10 06:21:37;;;;;;;9.40;5.78;;;;;;;7.51;85.22;101267.00;4986160;28;20117;-80
2022/10/10 06:24:02;;;;;;;9.25;5.22;;;;;;;7.48;85.44;101249.13;4976275;28;20037;-80
2022/10/10 06:26:28;;;;;;;9.73;5.25;;;;;;;7.54;85.87;101264.25;4970741;28;20162;-81
2022/10/10 06:28:53;;;;;;;12.18;6.30;;;;;;;7.51;86.48;101261.84;4987234;28;20073;-80
2022/10/10 06:31:19;;;;;;;11.63;6.45;;;;;;;7.50;86.12;101262.78;4986332;28;20382;-80
2022/10/10 06:33:45;;;;;;;9.75;6.32;;;;;;;7.53;86.13;101260.00;4986969;28;20026;-80
2022/10/10 06:36:12;;;;;;;11.77;6.13;;;;;;;7.63;86.77;101271.44;4985466;28;20030;-80
2022/10/10 06:38:42;;;;;;;12.10;6.03;;;;;;;7.59;86.49;101265.63;4980765;28;20148;-80
2022/10/10 06:41:08;;;;;;;11.68;5.85;;;;;;;7.64;86.83;101267.94;4972552;28;20034;-80
2022/10/10 06:43:34;;;;;;;10.20;5.57;;;;;;;7.72;86.90;101283.75;4979217;28;20076;-80
2022/10/10 06:46:00;;;;;;;10.73;6.47;;;;;;;7.68;86.85;101269.38;4978368;28;20030;-80
2022/10/10 06:48:26;;;;;;;10.10;6.47;;;;;;;7.78;87.05;101280.78;4986901;28;20123;-80
2022/10/10 06:50:58;;;;;;;11.57;6.15;;;;;;;7.79;86.89;101277.28;4987011;28;20018;-80
2022/10/10 06:53:24;;;;;;;11.80;5.80;;;;;;;7.84;87.30;101277.81;4979975;28;20046;-80
2022/10/10 06:55:51;;;;;;;11.75;6.57;;;;;;;7.85;87.54;101287.22;4986324;28;20034;-80
2022/10/10 06:58:17;;;;;;;9.05;5.80;;;;;;;7.90;88.08;101287.75;4980593;28;20022;-80
2022/10/10 07:00:48;;;;;;;11.27;6.93;;;;;;;7.87;87.96;101263.91;4982109;28;20042;-80
2022/10/10 07:03:14;;;;;;;11.25;6.80;;;;;;;7.97;88.32;101270.97;4972174;28;20038;-80
2022/10/10 07:05:40;;;;;;;9.02;5.95;;;;;;;8.02;88.26;101278.41;4970475;28;20073;-81
2022/10/10 07:08:05;;;;;;;11.85;6.60;;;;;;;8.05;87.86;101272.22;4980876;28;20030;-80
2022/10/10 07:10:31;;;;;;;9.63;6.55;;;;;;;8.03;88.38;101269.75;4986184;28;20033;-80
2022/10/10 07:12:56;;;;;;;11.57;6.75;;;;;;;8.13;88.57;101282.91;4985783;28;20034;-80
2022/10/10 07:15:22;;;;;;;8.98;5.82;;;;;;;8.12;87.89;101268.31;4986004;28;20033;-80
2022/10/10 07:17:47;;;;;;;10.23;6.05;;;;;;;8.18;87.92;101276.50;4982464;28;20264;-80
2022/10/10 07:20:12;;;;;;;9.85;6.00;;;;;;;8.21;88.20;101278.06;4986005;28;20030;-80
2022/10/10 07:22:38;;;;;;;12.05;5.78;;;;;;;8.22;87.87;101279.72;4979760;28;20023;-80
2022/10/10 07:25:03;;;;;;;10.63;5.38;;;;;;;8.30;87.96;101277.47;4983574;28;20032;-80
2022/10/10 07:27:29;;;;;;;11.52;6.35;;;;;;;8.38;88.11;101289.94;5000134;28;20109;-80
2022/10/10 07:29:54;;;;;;;10.80;6.75;;;;;;;8.38;88.59;101285.59;5000032;28;20053;-80
2022/10/10 07:32:20;;;;;;;12.63;7.18;;;;;;;8.48;88.25;101296.16;4999430;28;20033;-80
2022/10/10 07:34:45;;;;;;;8.95;6.47;;;;;;;8.48;88.89;101281.47;5003360;28;20079;-80
2022/10/10 07:37:10;;;;;;;12.40;6.22;;;;;;;8.55;89.10;101292.25;4985681;28;20378;-80
2022/10/10 07:39:36;;;;;;;10.75;6.38;;;;;;;8.63;88.96;101299.50;4995348;28;20037;-80
2022/10/10 07:42:01;;;;;;;10.55;6.05;;;;;;;8.72;88.66;101293.72;5002221;28;20154;-80
2022/10/10 07:44:26;;;;;;;12.18;7.30;;;;;;;8.77;89.35;101300.25;4992104;28;20545;-80
2022/10/10 07:46:52;;;;;;;11.25;6.70;;;;;;;8.84;88.89;101303.25;5002053;28;20477;-80
2022/10/10 07:49:17;;;;;;;13.15;6.63;;;;;;;8.98;88.71;101317.84;4982048;28;20378;-80
2022/10/10 07:51:42;;;;;;;11.25;6.82;;;;;;;9.09;88.63;101317.13;5004416;28;20063;-81
2022/10/10 07:54:08;;;;;;;12.00;6.65;;;;;;;9.20;89.28;101315.47;4994656;28;20112;-80
2022/10/10 07:56:34;;;;;;;11.93;6.70;;;;;;;9.23;89.49;101304.06;4977441;28;20501;-80
2022/10/10 07:58:59;;;;;;;14.27;6.68;;;;;;;9.39;89.04;101325.38;5002095;28;20456;-80
2022/10/10 08:01:25;;;;;;;11.02;7.20;;;;;;;9.49;88.51;101326.41;5003840;28;20878;-80
2022/10/10 08:03:50;;;;;;;11.00;6.93;;;;;;;9.48;88.63;101319.59;4994514;28;20496;-80
2022/10/10 08:06:17;;;;;;;9.88;6.90;;;;;;;9.61;88.49;101329.09;5004336;28;20478;-80
2022/10/10 08:08:43;;;;;;;10.90;6.15;;;;;;;9.60;88.71;101309.31;5002524;28;20200;-80
2022/10/10 08:11:09;;;;;;;9.63;7.05;;;;;;;9.67;88.56;101319.13;5000931;28;20034;-80
2022/10/10 08:13:37;;;;;;;12.15;6.43;;;;;;;9.68;88.57;101315.59;4987694;28;20477;-80
2022/10/10 08:16:03;;;;;;;13.05;6.65;;;;;;;9.79;88.52;101328.63;5003097;28;20437;-80
2022/10/10 08:18:29;;;;;;;10.73;5.95;;;;;;;9.83;88.42;101313.72;4985516;28;20501;-80
2022/10/10 08:20:59;;;;;;;12.77;7.90;;;;;;;9.85;88.31;101322.19;4998274;28;20038;-80
2022/10/10 08:23:25;;;;;;;13.20;7.35;;;;;;;9.86;88.02;101318.66;5003861;28;20026;-80
2022/10/10 08:25:50;;;;;;;9.85;6.88;;;;;;;9.95;87.83;101325.78;4991016;28;20494;-80
2022/10/10 08:28:15;;;;;;;9.63;6.57;;;;;;;9.97;88.35;101321.31;5003287;28;20061;-80
2022/10/10 08:30:41;;;;;;;11.32;6.20;;;;;;;10.01;87.62;101309.81;5006973;28;20026;-80
2022/10/10 08:33:06;;;;;;;9.75;6.82;;;;;;;10.14;87.64;101319.28;5003015;28;20030;-80
2022/10/10 08:35:37;;;;;;;9.20;6.55;;;;;;;10.21;87.50;101328.31;5008665;28;20030;-80
2022/10/10 08:38:02;;;;;;;11.38;6.75;;;;;;;10.25;88.44;101325.38;4998064;28;20396;-80
2022/10/10 08:40:28;;;;;;;11.98;7.80;;;;;;;10.27;88.21;101317.53;4995481;28;20603;-80
2022/10/10 08:42:56;;;;;;;10.60;6.88;;;;;;;10.37;87.88;101318.50;4997071;28;20057;-80
2022/10/10 08:45:25;;;;;;;9.45;6.93;;;;;;;10.50;88.31;101324.44;4995873;28;20050;-80
2022/10/10 08:48:04;;;;;;;10.65;6.00;;;;;;;10.59;87.85;101322.94;5008623;28;20048;-80
2022/10/10 08:50:56;;;;;;;11.63;7.85;;;;;;;10.73;87.59;101332.31;5000885;28;20048;-80
2022/10/10 08:53:31;;;;;;;11.40;7.88;;;;;;;10.85;86.59;101328.81;4992152;28;20161;-80
2022/10/10 08:55:58;;;;;;;9.38;7.00;;;;;;;10.94;87.52;101328.09;5008116;28;20516;-80
2022/10/10 08:58:29;;;;;;;11.50;8.15;;;;;;;11.04;86.93;101334.25;5002355;28;20525;-80
2022/10/10 09:01:04;;;;;;;12.27;7.28;;;;;;;11.16;86.89;101337.69;5004439;28;20030;-80
2022/10/10 09:03:36;;;;;;;12.75;7.35;;;;;;;11.26;86.31;101337.81;5008084;28;20045;-80
2022/10/10 09:06:24;;;;;;;10.93;6.40;;;;;;;11.32;86.29;101338.19;4998593;28;20034;-80
2022/10/10 09:08:58;;;;;;;10.85;7.05;;;;;;;11.40;86.24;101345.38;4960766;28;20055;-80
2022/10/10 09:11:56;;;;;;;13.82;7.80;;;;;;;11.44;86.26;101332.03;4959904;28;20054;-80
2022/10/10 09:14:38;;;;;;;10.45;7.47;;;;;;;11.52;85.62;101344.44;4959801;28;20138;-80
2022/10/10 09:17:40;;;;;;;11.50;7.85;;;;;;;11.67;85.06;101342.44;4940232;28;20478;-80
2022/10/10 09:20:21;;;;;;;13.00;8.20;;;;;;;11.78;86.10;101355.41;4953692;28;20050;-80
2022/10/10 09:22:56;;;;;;;11.32;8.35;;;;;;;11.94;85.17;101352.47;4963294;28;20102;-80
2022/10/10 09:25:26;;;;;;;13.90;8.20;;;;;;;12.00;84.87;101361.56;4956030;28;20074;-80
2022/10/10 09:28:02;;;;;;;11.25;7.97;;;;;;;12.07;84.75;101350.53;4949799;28;20678;-80
2022/10/10 09:30:32;;;;;;;11.70;8.02;;;;;;;12.16;83.72;101355.03;4959698;28;20031;-80
2022/10/10 09:33:08;;;;;;;12.15;7.63;;;;;;;12.28;84.64;101360.19;4962166;28;20057;-80
2022/10/10 09:35:37;;;;;;;12.95;8.63;;;;;;;12.39;83.54;101360.16;4965195;28;20190;-80
2022/10/10 09:38:17;;;;;;;11.02;7.93;;;;;;;12.44;83.98;101368.38;4949237;28;20375;-80
2022/10/10 09:40:48;;;;;;;11.88;8.32;;;;;;;12.44;84.06;101363.19;4965492;28;20038;-80
2022/10/10 09:43:19;;;;;;;13.52;8.48;;;;;;;12.58;83.45;101362.91;4964785;28;20072;-80
2022/10/10 09:45:57;;;;;;;12.95;8.57;;;;;;;12.65;83.26;101371.84;4980608;28;20049;-81
2022/10/10 09:48:37;;;;;;;12.35;8.35;;;;;;;12.76;83.89;101373.59;5005260;28;20021;-80
2022/10/10 09:51:06;;;;;;;13.07;8.73;;;;;;;12.77;83.22;101364.81;5004481;28;20034;-80
2022/10/10 09:53:32;;;;;;;13.38;8.48;;;;;;;12.79;82.62;101365.53;5007813;28;20028;-80
2022/10/10 09:55:58;;;;;;;12.73;8.50;;;;;;;12.87;83.53;101364.91;4996290;28;20029;-80
2022/10/10 09:58:40;;;;;;;12.73;8.52;;;;;;;12.91;82.74;101371.53;5006614;28;20052;-80
2022/10/10 10:01:32;;;;;;;11.70;8.15;;;;;;;12.98;82.74;101373.47;5007115;28;20030;-80
2022/10/10 10:04:13;;;;;;;10.63;8.20;;;;;;;13.00;81.34;101375.94;5006780;28;20124;-81
2022/10/10 10:06:43;;;;;;;11.18;8.80;;;;;;;13.06;81.56;101369.41;5003922;28;20030;-80
2022/10/10 10:09:14;;;;;;;11.35;7.95;;;;;;;13.04;81.39;101372.13;5006710;28;20037;-80
2022/10/10 10:11:39;;;;;;;12.90;8.38;;;;;;;13.10;81.27;101370.81;5005416;28;20470;-80
2022/10/10 10:14:05;;;;;;;13.02;7.90;;;;;;;13.09;81.85;101375.19;5006630;28;20037;-81
2022/10/10 10:16:33;;;;;;;10.73;8.15;;;;;;;13.18;81.56;101390.03;5006709;28;20426;-80
2022/10/10 10:18:59;;;;;;;;;;;;;;;13.28;82.20;101384.91;5007769;28;20152;-80
2022/10/10 10:21:24;;;;;;;11.93;8.07;;;;;;;13.26;81.96;101377.25;5006070;28;20040;-81
2022/10/10 10:23:56;;;;;;;13.57;8.07;;;;;;;13.26;81.95;101376.41;5006828;28;20030;-80
2022/10/10 10:26:29;;;;;;;11.40;8.45;;;;;;;13.32;82.14;101385.50;5003426;28;20046;-80
2022/10/10 10:28:56;;;;;;;11.23;7.88;;;;;;;13.34;81.60;101383.56;5007621;28;20030;-80
2022/10/10 10:31:50;;;;;;;12.13;8.00;;;;;;;13.36;81.92;101379.06;5005952;28;20072;-80
2022/10/10 10:34:38;;;;;;;12.27;7.55;;;;;;;13.47;81.83;101374.56;4997718;28;20034;-81
2022/10/10 10:37:18;;;;;;;12.80;7.75;;;;;;;13.54;81.15;101393.16;5006686;28;20541;-80
2022/10/10 10:40:21;;;;;;;12.13;7.72;;;;;;;13.63;81.11;101400.16;5006809;28;20084;-80
2022/10/10 10:43:04;;;;;;;11.88;6.85;;;;;;;13.76;81.06;101397.34;5006191;28;20026;-81
2022/10/10 10:45:39;;;;;;;14.45;7.55;;;;;;;13.84;81.19;101405.34;5006004;28;20030;-80
2022/10/10 10:48:10;;;;;;;11.85;7.43;;;;;;;14.06;80.65;101406.91;5006138;28;20021;-80
2022/10/10 10:50:51;;;;;;;9.65;7.10;;;;;;;14.31;80.22;101403.78;5006208;28;20113;-81
2022/10/10 10:53:23;;;;;;;11.48;7.07;;;;;;;14.33;78.79;101408.88;5000683;28;20030;-81
2022/10/10 10:56:12;;;;;;;11.40;7.30;;;;;;;14.37;78.09;101412.88;4988561;28;20026;-80
2022/10/10 10:59:12;;;;;;;10.00;7.22;;;;;;;14.53;78.78;101420.22;5005558;28;20498;-80
2022/10/10 11:01:54;;;;;;;10.43;7.57;;;;;;;14.59;78.05;101428.31;5005986;28;20045;-80
2022/10/10 11:04:41;;;;;;;11.20;7.57;;;;;;;14.68;77.86;101425.84;5000436;28;20108;-80
2022/10/10 11:07:21;;;;;;;11.43;7.50;;;;;;;14.72;79.47;101425.44;5000639;28;20032;-80
2022/10/10 11:09:55;;;;;;;10.75;6.85;;;;;;;14.87;78.43;101426.66;5005635;28;20375;-80
2022/10/10 11:12:36;;;;;;;11.95;6.90;;;;;;;14.86;78.77;101422.41;5005925;28;20029;-81
2022/10/10 11:15:12;;;;;;;12.13;7.40;;;;;;;14.86;77.26;101429.44;4994275;28;20037;-80
2022/10/10 11:18:09;;;;;;;9.85;7.25;;;;;;;14.91;78.08;101435.06;5005624;28;20059;-80
2022/10/10 11:20:43;;;;;;;10.55;6.97;;;;;;;14.90;77.23;101428.16;4999559;28;20057;-80
2022/10/10 11:23:27;;;;;;;11.82;7.03;;;;;;;14.83;77.20;101438.34;5005098;28;20120;-80
2022/10/10 11:26:01;;;;;;;12.88;6.43;;;;;;;14.95;77.63;101451.25;4992322;28;20041;-80
2022/10/10 11:28:33;;;;;;;9.55;6.50;;;;;;;14.92;77.36;101441.09;5006057;28;20017;-81
2022/10/10 11:31:05;;;;;;;11.10;6.30;;;;;;;15.14;77.95;101451.28;4996352;28;20030;-80
2022/10/10 11:33:39;;;;;;;11.55;6.88;;;;;;;15.28;77.33;101434.31;5004235;28;20500;-80
2022/10/10 11:36:14;;;;;;;11.10;6.45;;;;;;;15.40;76.92;101439.22;5001921;28;20397;-80
2022/10/10 11:39:09;;;;;;;9.52;6.38;;;;;;;15.49;77.11;101444.59;5005714;28;20037;-80
2022/10/10 11:41:40;;;;;;;10.43;6.70;;;;;;;15.46;76.89;101431.78;5004050;28;20426;-80